sensor_id;sensor_type;location;lat;lon;timestamp;P1;durP1;ratioP1;P2;durP2;ratioP2
12762;SDS011;6445;52.490;13.378;2024-01-15T00:01:02;16.05;;;9.75;;
12762;SDS011;6445;52.490;13.378;2024-01-15T00:03:28;12.38;;;9.00;;
12762;SDS011;6445;52.490;13.378;2024-01-15T00:05:53;14.07;;;9.05;;
12762;SDS011;6445;52.490;13.378;2024-01-15T00:08:19;16.08;;;9.50;;
12762;SDS011;6445;52.490;13.378;2024-01-15T00:10:44;13.77;;;9.88;;
12762;SDS011;6445;52.490;13.378;2024-01-15T00:13:09;14.65;;;9.77;;
12762;SDS011;6445;52.490;13.378;2024-01-15T00:15:34;17.40;;;9.82;;
12762;SDS011;6445;52.490;13.378;2024-01-15T00:18:00;17.25;;;9.80;;
12762;SDS011;6445;52.490;13.378;2024-01-15T00:20:25;15.10;;;9.23;;
12762;SDS011;6445;52.490;13.378;2024-01-15T00:22:50;15.23;;;9.45;;
12762;SDS011;6445;52.490;13.378;2024-01-15T00:25:15;15.38;;;9.50;;
12762;SDS011;6445;52.490;13.378;2024-01-15T00:27:41;15.32;;;9.88;;
12762;SDS011;6445;52.490;13.378;2024-01-15T00:30:06;16.15;;;10.15;;
12762;SDS011;6445;52.490;13.378;2024-01-15T00:32:31;14.88;;;9.13;;
12762;SDS011;6445;52.490;13.378;2024-01-15T00:34:57;17.17;;;10.65;;
12762;SDS011;6445;52.490;13.378;2024-01-15T00:37:22;15.38;;;9.55;;
12762;SDS011;6445;52.490;13.378;2024-01-15T00:39:47;15.30;;;10.32;;
12762;SDS011;6445;52.490;13.378;2024-01-15T00:42:12;13.27;;;8.98;;
12762;SDS011;6445;52.490;13.378;2024-01-15T00:44:38;14.82;;;9.38;;
12762;SDS011;6445;52.490;13.378;2024-01-15T00:47:03;15.68;;;10.23;;
12762;SDS011;6445;52.490;13.378;2024-01-15T00:49:28;16.40;;;9.52;;
12762;SDS011;6445;52.490;13.378;2024-01-15T00:51:53;15.02;;;9.15;;
12762;SDS011;6445;52.490;13.378;2024-01-15T00:54:19;13.07;;;9.00;;
12762;SDS011;6445;52.490;13.378;2024-01-15T00:56:44;16.10;;;9.73;;
12762;SDS011;6445;52.490;13.378;2024-01-15T00:59:09;16.13;;;9.18;;
12762;SDS011;6445;52.490;13.378;2024-01-15T01:01:35;14.52;;;9.07;;
12762;SDS011;6445;52.490;13.378;2024-01-15T01:04:01;15.00;;;8.77;;
12762;SDS011;6445;52.490;13.378;2024-01-15T01:06:26;15.82;;;9.45;;
12762;SDS011;6445;52.490;13.378;2024-01-15T01:08:51;14.88;;;9.00;;
12762;SDS011;6445;52.490;13.378;2024-01-15T01:11:17;16.13;;;9.40;;
12762;SDS011;6445;52.490;13.378;2024-01-15T01:13:42;17.15;;;9.85;;
12762;SDS011;6445;52.490;13.378;2024-01-15T01:16:07;14.18;;;8.88;;
12762;SDS011;6445;52.490;13.378;2024-01-15T01:18:33;15.00;;;9.02;;
12762;SDS011;6445;52.490;13.378;2024-01-15T01:20:58;14.63;;;9.48;;
12762;SDS011;6445;52.490;13.378;2024-01-15T01:23:23;16.55;;;9.05;;
12762;SDS011;6445;52.490;13.378;2024-01-15T01:25:48;15.07;;;9.48;;
12762;SDS011;6445;52.490;13.378;2024-01-15T01:28:14;14.35;;;9.45;;
12762;SDS011;6445;52.490;13.378;2024-01-15T01:30:39;15.35;;;9.25;;
12762;SDS011;6445;52.490;13.378;2024-01-15T01:33:05;14.75;;;9.38;;
12762;SDS011;6445;52.490;13.378;2024-01-15T01:35:30;16.27;;;9.50;;
12762;SDS011;6445;52.490;13.378;2024-01-15T01:37:55;15.63;;;9.90;;
12762;SDS011;6445;52.490;13.378;2024-01-15T01:40:20;14.20;;;9.07;;
12762;SDS011;6445;52.490;13.378;2024-01-15T01:42:46;14.60;;;9.27;;
12762;SDS011;6445;52.490;13.378;2024-01-15T01:45:11;14.68;;;9.07;;
12762;SDS011;6445;52.490;13.378;2024-01-15T01:47:36;16.42;;;10.23;;
12762;SDS011;6445;52.490;13.378;2024-01-15T01:50:03;19.55;;;10.68;;
12762;SDS011;6445;52.490;13.378;2024-01-15T01:52:29;18.70;;;10.50;;
12762;SDS011;6445;52.490;13.378;2024-01-15T01:54:55;20.48;;;10.38;;
12762;SDS011;6445;52.490;13.378;2024-01-15T01:57:21;19.25;;;9.75;;
12762;SDS011;6445;52.490;13.378;2024-01-15T01:59:46;16.88;;;10.15;;
12762;SDS011;6445;52.490;13.378;2024-01-15T02:02:12;17.92;;;10.57;;
12762;SDS011;6445;52.490;13.378;2024-01-15T02:04:37;18.63;;;10.70;;
12762;SDS011;6445;52.490;13.378;2024-01-15T02:07:03;21.83;;;11.40;;
12762;SDS011;6445;52.490;13.378;2024-01-15T02:09:29;17.75;;;10.65;;
12762;SDS011;6445;52.490;13.378;2024-01-15T02:11:54;22.38;;;10.88;;
12762;SDS011;6445;52.490;13.378;2024-01-15T02:14:20;16.02;;;9.40;;
12762;SDS011;6445;52.490;13.378;2024-01-15T02:16:45;17.33;;;10.48;;
12762;SDS011;6445;52.490;13.378;2024-01-15T02:19:16;16.33;;;9.82;;
12762;SDS011;6445;52.490;13.378;2024-01-15T02:21:42;15.98;;;9.75;;
12762;SDS011;6445;52.490;13.378;2024-01-15T02:24:07;15.18;;;8.55;;
12762;SDS011;6445;52.490;13.378;2024-01-15T02:26:33;14.32;;;8.75;;
12762;SDS011;6445;52.490;13.378;2024-01-15T02:29:00;15.18;;;9.30;;
12762;SDS011;6445;52.490;13.378;2024-01-15T02:31:26;14.35;;;8.77;;
12762;SDS011;6445;52.490;13.378;2024-01-15T02:33:52;14.25;;;8.43;;
12762;SDS011;6445;52.490;13.378;2024-01-15T02:36:17;15.48;;;8.32;;
12762;SDS011;6445;52.490;13.378;2024-01-15T02:38:42;14.80;;;8.68;;
12762;SDS011;6445;52.490;13.378;2024-01-15T02:41:07;11.80;;;7.32;;
12762;SDS011;6445;52.490;13.378;2024-01-15T02:43:33;11.85;;;7.38;;
12762;SDS011;6445;52.490;13.378;2024-01-15T02:45:58;15.00;;;7.55;;
12762;SDS011;6445;52.490;13.378;2024-01-15T02:48:23;14.88;;;7.25;;
12762;SDS011;6445;52.490;13.378;2024-01-15T02:50:48;12.30;;;7.55;;
12762;SDS011;6445;52.490;13.378;2024-01-15T02:53:14;15.10;;;7.38;;
12762;SDS011;6445;52.490;13.378;2024-01-15T02:55:39;12.43;;;7.68;;
12762;SDS011;6445;52.490;13.378;2024-01-15T02:58:04;12.95;;;7.93;;
12762;SDS011;6445;52.490;13.378;2024-01-15T03:00:29;14.50;;;7.80;;
12762;SDS011;6445;52.490;13.378;2024-01-15T03:02:55;14.23;;;7.95;;
12762;SDS011;6445;52.490;13.378;2024-01-15T03:05:20;11.07;;;7.32;;
12762;SDS011;6445;52.490;13.378;2024-01-15T03:07:45;12.75;;;8.25;;
12762;SDS011;6445;52.490;13.378;2024-01-15T03:10:11;12.02;;;7.95;;
12762;SDS011;6445;52.490;13.378;2024-01-15T03:12:36;13.63;;;7.47;;
12762;SDS011;6445;52.490;13.378;2024-01-15T03:15:01;12.52;;;7.55;;
12762;SDS011;6445;52.490;13.378;2024-01-15T03:17:27;10.75;;;7.00;;
12762;SDS011;6445;52.490;13.378;2024-01-15T03:19:52;14.93;;;6.80;;
12762;SDS011;6445;52.490;13.378;2024-01-15T03:22:18;11.07;;;6.80;;
12762;SDS011;6445;52.490;13.378;2024-01-15T03:24:43;11.98;;;7.20;;
12762;SDS011;6445;52.490;13.378;2024-01-15T03:27:09;14.23;;;7.35;;
12762;SDS011;6445;52.490;13.378;2024-01-15T03:29:34;11.63;;;7.45;;
12762;SDS011;6445;52.490;13.378;2024-01-15T03:31:59;10.40;;;6.88;;
12762;SDS011;6445;52.490;13.378;2024-01-15T03:34:24;11.60;;;6.50;;
12762;SDS011;6445;52.490;13.378;2024-01-15T03:36:50;11.23;;;6.57;;
12762;SDS011;6445;52.490;13.378;2024-01-15T03:39:15;11.68;;;6.65;;
12762;SDS011;6445;52.490;13.378;2024-01-15T03:41:40;12.50;;;7.03;;
12762;SDS011;6445;52.490;13.378;2024-01-15T03:44:06;12.15;;;6.57;;
12762;SDS011;6445;52.490;13.378;2024-01-15T03:46:31;10.60;;;6.78;;
12762;SDS011;6445;52.490;13.378;2024-01-15T03:48:56;15.13;;;6.35;;
12762;SDS011;6445;52.490;13.378;2024-01-15T03:51:21;13.38;;;6.22;;
12762;SDS011;6445;52.490;13.378;2024-01-15T03:53:47;11.82;;;6.30;;
12762;SDS011;6445;52.490;13.378;2024-01-15T03:56:13;9.90;;;5.78;;
12762;SDS011;6445;52.490;13.378;2024-01-15T03:58:38;10.45;;;6.35;;
12762;SDS011;6445;52.490;13.378;2024-01-15T04:01:03;13.90;;;5.80;;
12762;SDS011;6445;52.490;13.378;2024-01-15T04:03:32;12.23;;;5.82;;
12762;SDS011;6445;52.490;13.378;2024-01-15T04:05:57;11.00;;;5.32;;
12762;SDS011;6445;52.490;13.378;2024-01-15T04:08:22;10.38;;;5.63;;
12762;SDS011;6445;52.490;13.378;2024-01-15T04:10:48;14.90;;;6.28;;
12762;SDS011;6445;52.490;13.378;2024-01-15T04:13:13;8.27;;;4.97;;
12762;SDS011;6445;52.490;13.378;2024-01-15T04:15:38;9.98;;;5.38;;
12762;SDS011;6445;52.490;13.378;2024-01-15T04:18:04;10.23;;;5.45;;
12762;SDS011;6445;52.490;13.378;2024-01-15T04:20:29;12.55;;;5.60;;
12762;SDS011;6445;52.490;13.378;2024-01-15T04:22:54;11.93;;;5.88;;
12762;SDS011;6445;52.490;13.378;2024-01-15T04:25:20;8.68;;;5.53;;
12762;SDS011;6445;52.490;13.378;2024-01-15T04:27:45;10.88;;;5.40;;
12762;SDS011;6445;52.490;13.378;2024-01-15T04:30:10;9.13;;;5.10;;
12762;SDS011;6445;52.490;13.378;2024-01-15T04:32:36;9.05;;;4.72;;
12762;SDS011;6445;52.490;13.378;2024-01-15T04:35:01;8.50;;;4.70;;
12762;SDS011;6445;52.490;13.378;2024-01-15T04:37:26;11.13;;;4.53;;
12762;SDS011;6445;52.490;13.378;2024-01-15T04:39:52;11.27;;;5.38;;
12762;SDS011;6445;52.490;13.378;2024-01-15T04:42:19;9.85;;;4.00;;
12762;SDS011;6445;52.490;13.378;2024-01-15T04:44:45;8.50;;;4.75;;
12762;SDS011;6445;52.490;13.378;2024-01-15T04:47:10;7.13;;;4.15;;
12762;SDS011;6445;52.490;13.378;2024-01-15T04:49:36;7.70;;;3.92;;
12762;SDS011;6445;52.490;13.378;2024-01-15T04:52:01;7.60;;;3.70;;
12762;SDS011;6445;52.490;13.378;2024-01-15T04:54:26;10.68;;;4.28;;
12762;SDS011;6445;52.490;13.378;2024-01-15T04:56:52;8.63;;;3.97;;
12762;SDS011;6445;52.490;13.378;2024-01-15T04:59:17;14.27;;;3.72;;
12762;SDS011;6445;52.490;13.378;2024-01-15T05:01:42;8.68;;;3.50;;
12762;SDS011;6445;52.490;13.378;2024-01-15T05:04:08;7.07;;;3.03;;
12762;SDS011;6445;52.490;13.378;2024-01-15T05:06:33;8.20;;;3.38;;
12762;SDS011;6445;52.490;13.378;2024-01-15T05:08:58;8.35;;;3.25;;
12762;SDS011;6445;52.490;13.378;2024-01-15T05:11:24;7.78;;;3.30;;
12762;SDS011;6445;52.490;13.378;2024-01-15T05:13:49;7.75;;;3.15;;
12762;SDS011;6445;52.490;13.378;2024-01-15T05:16:15;9.30;;;3.13;;
12762;SDS011;6445;52.490;13.378;2024-01-15T05:18:40;9.43;;;3.10;;
12762;SDS011;6445;52.490;13.378;2024-01-15T05:21:05;7.75;;;3.05;;
12762;SDS011;6445;52.490;13.378;2024-01-15T05:23:31;7.45;;;3.22;;
12762;SDS011;6445;52.490;13.378;2024-01-15T05:25:56;10.32;;;3.08;;
12762;SDS011;6445;52.490;13.378;2024-01-15T05:28:22;6.88;;;3.58;;
12762;SDS011;6445;52.490;13.378;2024-01-15T05:30:47;8.25;;;3.15;;
12762;SDS011;6445;52.490;13.378;2024-01-15T05:33:12;6.97;;;3.00;;
12762;SDS011;6445;52.490;13.378;2024-01-15T05:35:37;11.38;;;3.05;;
12762;SDS011;6445;52.490;13.378;2024-01-15T05:38:03;4.85;;;2.85;;
12762;SDS011;6445;52.490;13.378;2024-01-15T05:40:28;11.05;;;3.45;;
12762;SDS011;6445;52.490;13.378;2024-01-15T05:42:53;8.23;;;3.20;;
12762;SDS011;6445;52.490;13.378;2024-01-15T05:45:18;10.23;;;3.00;;
12762;SDS011;6445;52.490;13.378;2024-01-15T05:47:44;10.70;;;3.17;;
12762;SDS011;6445;52.490;13.378;2024-01-15T05:50:09;8.38;;;3.03;;
12762;SDS011;6445;52.490;13.378;2024-01-15T05:52:35;5.32;;;2.40;;
12762;SDS011;6445;52.490;13.378;2024-01-15T05:55:00;7.53;;;2.88;;
12762;SDS011;6445;52.490;13.378;2024-01-15T05:57:25;7.40;;;2.72;;
12762;SDS011;6445;52.490;13.378;2024-01-15T05:59:51;7.70;;;2.58;;
12762;SDS011;6445;52.490;13.378;2024-01-15T06:02:16;9.60;;;2.85;;
12762;SDS011;6445;52.490;13.378;2024-01-15T06:04:41;5.90;;;2.60;;
12762;SDS011;6445;52.490;13.378;2024-01-15T06:07:07;6.72;;;2.90;;
12762;SDS011;6445;52.490;13.378;2024-01-15T06:09:32;9.15;;;3.05;;
12762;SDS011;6445;52.490;13.378;2024-01-15T06:11:57;8.75;;;3.38;;
12762;SDS011;6445;52.490;13.378;2024-01-15T06:14:23;7.90;;;2.90;;
12762;SDS011;6445;52.490;13.378;2024-01-15T06:16:48;8.30;;;2.60;;
12762;SDS011;6445;52.490;13.378;2024-01-15T06:19:14;6.20;;;2.50;;
12762;SDS011;6445;52.490;13.378;2024-01-15T06:21:39;6.22;;;2.60;;
12762;SDS011;6445;52.490;13.378;2024-01-15T06:24:04;9.50;;;2.38;;
12762;SDS011;6445;52.490;13.378;2024-01-15T06:26:30;8.10;;;2.40;;
12762;SDS011;6445;52.490;13.378;2024-01-15T06:28:55;9.27;;;2.70;;
12762;SDS011;6445;52.490;13.378;2024-01-15T06:31:20;9.90;;;2.50;;
12762;SDS011;6445;52.490;13.378;2024-01-15T06:33:46;6.00;;;2.40;;
12762;SDS011;6445;52.490;13.378;2024-01-15T06:36:13;10.07;;;2.92;;
12762;SDS011;6445;52.490;13.378;2024-01-15T06:38:38;9.48;;;2.22;;
12762;SDS011;6445;52.490;13.378;2024-01-15T06:41:03;10.93;;;3.10;;
12762;SDS011;6445;52.490;13.378;2024-01-15T06:43:29;9.50;;;2.42;;
12762;SDS011;6445;52.490;13.378;2024-01-15T06:45:54;10.93;;;2.88;;
12762;SDS011;6445;52.490;13.378;2024-01-15T06:48:19;9.40;;;2.70;;
12762;SDS011;6445;52.490;13.378;2024-01-15T06:50:44;7.07;;;2.47;;
12762;SDS011;6445;52.490;13.378;2024-01-15T06:53:10;8.50;;;2.45;;
12762;SDS011;6445;52.490;13.378;2024-01-15T06:55:35;7.38;;;2.30;;
12762;SDS011;6445;52.490;13.378;2024-01-15T06:58:01;5.20;;;1.77;;
12762;SDS011;6445;52.490;13.378;2024-01-15T07:00:26;5.80;;;2.28;;
12762;SDS011;6445;52.490;13.378;2024-01-15T07:02:52;8.85;;;2.50;;
12762;SDS011;6445;52.490;13.378;2024-01-15T07:05:17;8.82;;;2.00;;
12762;SDS011;6445;52.490;13.378;2024-01-15T07:07:43;5.97;;;1.88;;
12762;SDS011;6445;52.490;13.378;2024-01-15T07:10:08;8.52;;;2.25;;
12762;SDS011;6445;52.490;13.378;2024-01-15T07:12:33;9.20;;;2.00;;
12762;SDS011;6445;52.490;13.378;2024-01-15T07:14:59;4.57;;;2.22;;
12762;SDS011;6445;52.490;13.378;2024-01-15T07:17:24;11.07;;;2.40;;
12762;SDS011;6445;52.490;13.378;2024-01-15T07:19:49;7.68;;;2.58;;
12762;SDS011;6445;52.490;13.378;2024-01-15T07:22:14;7.63;;;2.10;;
12762;SDS011;6445;52.490;13.378;2024-01-15T07:24:42;5.55;;;2.13;;
12762;SDS011;6445;52.490;13.378;2024-01-15T07:27:08;11.60;;;2.60;;
12762;SDS011;6445;52.490;13.378;2024-01-15T07:29:33;9.43;;;2.25;;
12762;SDS011;6445;52.490;13.378;2024-01-15T07:32:01;6.38;;;1.98;;
12762;SDS011;6445;52.490;13.378;2024-01-15T07:34:26;7.10;;;2.75;;
12762;SDS011;6445;52.490;13.378;2024-01-15T07:36:51;5.85;;;1.63;;
12762;SDS011;6445;52.490;13.378;2024-01-15T07:39:18;7.53;;;2.25;;
12762;SDS011;6445;52.490;13.378;2024-01-15T07:41:43;6.28;;;1.80;;
12762;SDS011;6445;52.490;13.378;2024-01-15T07:44:09;7.05;;;2.30;;
12762;SDS011;6445;52.490;13.378;2024-01-15T07:46:34;8.18;;;2.50;;
12762;SDS011;6445;52.490;13.378;2024-01-15T07:48:59;6.05;;;1.80;;
12762;SDS011;6445;52.490;13.378;2024-01-15T07:51:24;9.10;;;2.20;;
12762;SDS011;6445;52.490;13.378;2024-01-15T07:53:52;15.27;;;2.40;;
12762;SDS011;6445;52.490;13.378;2024-01-15T07:56:18;9.98;;;2.47;;
12762;SDS011;6445;52.490;13.378;2024-01-15T07:58:43;9.65;;;2.70;;
12762;SDS011;6445;52.490;13.378;2024-01-15T08:01:08;9.48;;;2.80;;
12762;SDS011;6445;52.490;13.378;2024-01-15T08:03:34;7.70;;;1.77;;
12762;SDS011;6445;52.490;13.378;2024-01-15T08:05:59;9.73;;;2.15;;
12762;SDS011;6445;52.490;13.378;2024-01-15T08:08:24;11.63;;;2.15;;
12762;SDS011;6445;52.490;13.378;2024-01-15T08:10:51;9.45;;;2.45;;
12762;SDS011;6445;52.490;13.378;2024-01-15T08:13:17;6.78;;;2.15;;
12762;SDS011;6445;52.490;13.378;2024-01-15T08:15:42;8.13;;;2.30;;
12762;SDS011;6445;52.490;13.378;2024-01-15T08:18:07;11.20;;;2.50;;
12762;SDS011;6445;52.490;13.378;2024-01-15T08:20:32;6.00;;;2.00;;
12762;SDS011;6445;52.490;13.378;2024-01-15T08:22:57;8.18;;;2.10;;
12762;SDS011;6445;52.490;13.378;2024-01-15T08:25:23;7.70;;;2.00;;
12762;SDS011;6445;52.490;13.378;2024-01-15T08:27:48;10.43;;;2.17;;
12762;SDS011;6445;52.490;13.378;2024-01-15T08:30:14;7.15;;;2.15;;
12762;SDS011;6445;52.490;13.378;2024-01-15T08:32:39;6.68;;;2.25;;
12762;SDS011;6445;52.490;13.378;2024-01-15T08:35:07;7.85;;;2.17;;
12762;SDS011;6445;52.490;13.378;2024-01-15T08:37:33;7.07;;;2.20;;
12762;SDS011;6445;52.490;13.378;2024-01-15T08:39:58;8.65;;;2.45;;
12762;SDS011;6445;52.490;13.378;2024-01-15T08:42:24;7.15;;;2.13;;
12762;SDS011;6445;52.490;13.378;2024-01-15T08:44:49;8.02;;;2.97;;
12762;SDS011;6445;52.490;13.378;2024-01-15T08:47:15;5.72;;;2.70;;
12762;SDS011;6445;52.490;13.378;2024-01-15T08:49:40;5.75;;;2.20;;
12762;SDS011;6445;52.490;13.378;2024-01-15T08:52:07;6.07;;;2.00;;
12762;SDS011;6445;52.490;13.378;2024-01-15T08:54:32;7.65;;;2.10;;
12762;SDS011;6445;52.490;13.378;2024-01-15T08:56:58;7.97;;;1.67;;
12762;SDS011;6445;52.490;13.378;2024-01-15T08:59:23;9.73;;;2.65;;
12762;SDS011;6445;52.490;13.378;2024-01-15T09:01:49;8.40;;;2.20;;
12762;SDS011;6445;52.490;13.378;2024-01-15T09:04:15;7.63;;;1.80;;
12762;SDS011;6445;52.490;13.378;2024-01-15T09:06:40;4.78;;;2.00;;
12762;SDS011;6445;52.490;13.378;2024-01-15T09:09:05;5.25;;;1.73;;
12762;SDS011;6445;52.490;13.378;2024-01-15T09:11:31;6.55;;;2.47;;
12762;SDS011;6445;52.490;13.378;2024-01-15T09:13:57;5.68;;;1.98;;
12762;SDS011;6445;52.490;13.378;2024-01-15T09:16:22;9.35;;;2.00;;
12762;SDS011;6445;52.490;13.378;2024-01-15T09:18:48;7.65;;;2.40;;
12762;SDS011;6445;52.490;13.378;2024-01-15T09:21:13;6.30;;;1.95;;
12762;SDS011;6445;52.490;13.378;2024-01-15T09:23:38;7.63;;;2.10;;
12762;SDS011;6445;52.490;13.378;2024-01-15T09:26:03;11.52;;;1.98;;
12762;SDS011;6445;52.490;13.378;2024-01-15T09:28:29;5.65;;;2.05;;
12762;SDS011;6445;52.490;13.378;2024-01-15T09:30:54;8.15;;;1.95;;
12762;SDS011;6445;52.490;13.378;2024-01-15T09:33:19;7.50;;;2.30;;
12762;SDS011;6445;52.490;13.378;2024-01-15T09:35:44;7.10;;;2.17;;
12762;SDS011;6445;52.490;13.378;2024-01-15T09:38:10;10.93;;;2.53;;
12762;SDS011;6445;52.490;13.378;2024-01-15T09:40:35;5.28;;;2.17;;
12762;SDS011;6445;52.490;13.378;2024-01-15T09:43:03;8.30;;;2.35;;
12762;SDS011;6445;52.490;13.378;2024-01-15T09:45:30;8.57;;;2.10;;
12762;SDS011;6445;52.490;13.378;2024-01-15T09:47:55;7.53;;;2.63;;
12762;SDS011;6445;52.490;13.378;2024-01-15T09:50:21;8.07;;;2.20;;
12762;SDS011;6445;52.490;13.378;2024-01-15T09:52:46;5.57;;;1.73;;
12762;SDS011;6445;52.490;13.378;2024-01-15T09:55:13;7.43;;;1.63;;
12762;SDS011;6445;52.490;13.378;2024-01-15T09:57:38;6.50;;;2.08;;
12762;SDS011;6445;52.490;13.378;2024-01-15T10:00:04;8.25;;;2.20;;
12762;SDS011;6445;52.490;13.378;2024-01-15T10:02:31;3.67;;;1.52;;
12762;SDS011;6445;52.490;13.378;2024-01-15T10:04:57;4.85;;;1.80;;
12762;SDS011;6445;52.490;13.378;2024-01-15T10:07:22;8.57;;;2.45;;
12762;SDS011;6445;52.490;13.378;2024-01-15T10:09:50;7.97;;;1.88;;
12762;SDS011;6445;52.490;13.378;2024-01-15T10:12:15;7.45;;;1.60;;
12762;SDS011;6445;52.490;13.378;2024-01-15T10:14:40;5.65;;;2.05;;
12762;SDS011;6445;52.490;13.378;2024-01-15T10:17:14;6.32;;;2.00;;
12762;SDS011;6445;52.490;13.378;2024-01-15T10:19:43;8.23;;;2.00;;
12762;SDS011;6445;52.490;13.378;2024-01-15T10:22:10;6.13;;;1.77;;
12762;SDS011;6445;52.490;13.378;2024-01-15T10:24:38;4.25;;;1.80;;
12762;SDS011;6445;52.490;13.378;2024-01-15T10:27:09;5.88;;;2.03;;
12762;SDS011;6445;52.490;13.378;2024-01-15T10:29:35;4.65;;;2.03;;
12762;SDS011;6445;52.490;13.378;2024-01-15T10:32:01;4.78;;;1.92;;
12762;SDS011;6445;52.490;13.378;2024-01-15T10:34:27;5.03;;;2.05;;
12762;SDS011;6445;52.490;13.378;2024-01-15T10:36:53;4.30;;;2.25;;
12762;SDS011;6445;52.490;13.378;2024-01-15T10:39:23;6.65;;;2.13;;
12762;SDS011;6445;52.490;13.378;2024-01-15T10:41:49;8.07;;;1.83;;
12762;SDS011;6445;52.490;13.378;2024-01-15T10:44:16;6.05;;;2.20;;
12762;SDS011;6445;52.490;13.378;2024-01-15T10:46:41;4.72;;;1.73;;
12762;SDS011;6445;52.490;13.378;2024-01-15T10:49:09;4.85;;;1.70;;
12762;SDS011;6445;52.490;13.378;2024-01-15T10:51:35;5.00;;;1.90;;
12762;SDS011;6445;52.490;13.378;2024-01-15T10:54:01;5.50;;;1.65;;
12762;SDS011;6445;52.490;13.378;2024-01-15T10:56:27;4.65;;;2.03;;
12762;SDS011;6445;52.490;13.378;2024-01-15T10:58:52;5.40;;;1.90;;
12762;SDS011;6445;52.490;13.378;2024-01-15T11:01:19;7.15;;;2.28;;
12762;SDS011;6445;52.490;13.378;2024-01-15T11:03:45;4.82;;;1.63;;
12762;SDS011;6445;52.490;13.378;2024-01-15T11:06:17;3.33;;;1.73;;
12762;SDS011;6445;52.490;13.378;2024-01-15T11:08:50;3.13;;;1.40;;
12762;SDS011;6445;52.490;13.378;2024-01-15T11:11:16;4.18;;;1.50;;
12762;SDS011;6445;52.490;13.378;2024-01-15T11:13:42;3.20;;;1.38;;
12762;SDS011;6445;52.490;13.378;2024-01-15T11:16:13;5.10;;;1.52;;
12762;SDS011;6445;52.490;13.378;2024-01-15T11:18:40;6.32;;;1.63;;
12762;SDS011;6445;52.490;13.378;2024-01-15T11:23:42;3.97;;;1.20;;
12762;SDS011;6445;52.490;13.378;2024-01-15T11:28:56;2.90;;;1.30;;
12762;SDS011;6445;52.490;13.378;2024-01-15T11:31:30;2.38;;;1.30;;
12762;SDS011;6445;52.490;13.378;2024-01-15T11:34:21;1.58;;;1.10;;
12762;SDS011;6445;52.490;13.378;2024-01-15T11:37:24;3.13;;;1.42;;
12762;SDS011;6445;52.490;13.378;2024-01-15T11:39:54;3.85;;;1.27;;
12762;SDS011;6445;52.490;13.378;2024-01-15T11:42:21;5.68;;;1.67;;
12762;SDS011;6445;52.490;13.378;2024-01-15T11:44:47;4.28;;;1.70;;
12762;SDS011;6445;52.490;13.378;2024-01-15T11:47:13;4.47;;;1.92;;
12762;SDS011;6445;52.490;13.378;2024-01-15T11:52:30;4.30;;;1.63;;
12762;SDS011;6445;52.490;13.378;2024-01-15T11:55:00;3.75;;;1.83;;
12762;SDS011;6445;52.490;13.378;2024-01-15T12:00:04;3.70;;;1.70;;
12762;SDS011;6445;52.490;13.378;2024-01-15T12:02:34;3.15;;;1.55;;
12762;SDS011;6445;52.490;13.378;2024-01-15T12:04:59;2.80;;;1.60;;
12762;SDS011;6445;52.490;13.378;2024-01-15T12:07:24;4.50;;;1.80;;
12762;SDS011;6445;52.490;13.378;2024-01-15T12:09:49;5.35;;;1.80;;
12762;SDS011;6445;52.490;13.378;2024-01-15T12:12:18;3.55;;;1.75;;
12762;SDS011;6445;52.490;13.378;2024-01-15T12:14:50;3.15;;;1.80;;
12762;SDS011;6445;52.490;13.378;2024-01-15T12:17:15;3.60;;;2.10;;
12762;SDS011;6445;52.490;13.378;2024-01-15T12:19:41;2.97;;;1.80;;
12762;SDS011;6445;52.490;13.378;2024-01-15T12:22:06;2.10;;;1.55;;
12762;SDS011;6445;52.490;13.378;2024-01-15T12:24:31;5.07;;;1.95;;
12762;SDS011;6445;52.490;13.378;2024-01-15T12:26:57;4.40;;;1.60;;
12762;SDS011;6445;52.490;13.378;2024-01-15T12:29:22;1.98;;;1.42;;
12762;SDS011;6445;52.490;13.378;2024-01-15T12:31:48;2.35;;;1.70;;
12762;SDS011;6445;52.490;13.378;2024-01-15T12:34:13;4.90;;;1.80;;
12762;SDS011;6445;52.490;13.378;2024-01-15T12:36:39;5.88;;;1.90;;
12762;SDS011;6445;52.490;13.378;2024-01-15T12:39:05;4.18;;;1.58;;
12762;SDS011;6445;52.490;13.378;2024-01-15T12:41:33;2.67;;;1.50;;
12762;SDS011;6445;52.490;13.378;2024-01-15T12:43:59;1.92;;;1.40;;
12762;SDS011;6445;52.490;13.378;2024-01-15T12:46:24;5.72;;;1.90;;
12762;SDS011;6445;52.490;13.378;2024-01-15T12:48:50;2.00;;;1.60;;
12762;SDS011;6445;52.490;13.378;2024-01-15T12:51:15;2.80;;;1.58;;
12762;SDS011;6445;52.490;13.378;2024-01-15T12:53:40;3.30;;;1.88;;
12762;SDS011;6445;52.490;13.378;2024-01-15T12:56:05;4.57;;;2.20;;
12762;SDS011;6445;52.490;13.378;2024-01-15T12:58:31;2.50;;;1.60;;
12762;SDS011;6445;52.490;13.378;2024-01-15T13:00:56;3.00;;;1.58;;
12762;SDS011;6445;52.490;13.378;2024-01-15T13:03:22;3.05;;;1.70;;
12762;SDS011;6445;52.490;13.378;2024-01-15T13:05:47;3.13;;;1.80;;
12762;SDS011;6445;52.490;13.378;2024-01-15T13:08:13;2.85;;;1.65;;
12762;SDS011;6445;52.490;13.378;2024-01-15T13:10:39;3.05;;;1.90;;
12762;SDS011;6445;52.490;13.378;2024-01-15T13:13:07;3.35;;;1.70;;
12762;SDS011;6445;52.490;13.378;2024-01-15T13:15:32;3.90;;;1.90;;
12762;SDS011;6445;52.490;13.378;2024-01-15T13:17:57;3.85;;;1.80;;
12762;SDS011;6445;52.490;13.378;2024-01-15T13:20:23;3.75;;;1.90;;
12762;SDS011;6445;52.490;13.378;2024-01-15T13:22:48;1.90;;;1.42;;
12762;SDS011;6445;52.490;13.378;2024-01-15T13:25:13;3.47;;;1.67;;
12762;SDS011;6445;52.490;13.378;2024-01-15T13:27:38;5.25;;;2.00;;
12762;SDS011;6445;52.490;13.378;2024-01-15T13:30:04;4.03;;;1.80;;
12762;SDS011;6445;52.490;13.378;2024-01-15T13:32:29;3.58;;;1.70;;
12762;SDS011;6445;52.490;13.378;2024-01-15T13:34:55;2.78;;;1.88;;
12762;SDS011;6445;52.490;13.378;2024-01-15T13:37:21;3.28;;;1.50;;
12762;SDS011;6445;52.490;13.378;2024-01-15T13:39:48;2.78;;;2.10;;
12762;SDS011;6445;52.490;13.378;2024-01-15T13:42:13;3.78;;;1.85;;
12762;SDS011;6445;52.490;13.378;2024-01-15T13:44:40;5.85;;;1.75;;
12762;SDS011;6445;52.490;13.378;2024-01-15T13:47:05;4.00;;;1.85;;
12762;SDS011;6445;52.490;13.378;2024-01-15T13:49:30;3.85;;;1.92;;
12762;SDS011;6445;52.490;13.378;2024-01-15T13:51:56;2.90;;;2.00;;
12762;SDS011;6445;52.490;13.378;2024-01-15T13:54:21;3.88;;;1.88;;
12762;SDS011;6445;52.490;13.378;2024-01-15T13:56:46;4.30;;;1.65;;
12762;SDS011;6445;52.490;13.378;2024-01-15T13:59:12;3.85;;;2.00;;
12762;SDS011;6445;52.490;13.378;2024-01-15T14:01:37;4.90;;;1.67;;
12762;SDS011;6445;52.490;13.378;2024-01-15T14:04:03;3.90;;;2.03;;
12762;SDS011;6445;52.490;13.378;2024-01-15T14:06:28;6.10;;;1.70;;
12762;SDS011;6445;52.490;13.378;2024-01-15T14:08:53;5.32;;;2.00;;
12762;SDS011;6445;52.490;13.378;2024-01-15T14:11:19;3.55;;;1.90;;
12762;SDS011;6445;52.490;13.378;2024-01-15T14:13:44;3.05;;;1.80;;
12762;SDS011;6445;52.490;13.378;2024-01-15T14:16:10;5.40;;;2.05;;
12762;SDS011;6445;52.490;13.378;2024-01-15T14:18:36;6.70;;;2.13;;
12762;SDS011;6445;52.490;13.378;2024-01-15T14:21:01;5.50;;;1.90;;
12762;SDS011;6445;52.490;13.378;2024-01-15T14:23:26;4.28;;;1.80;;
12762;SDS011;6445;52.490;13.378;2024-01-15T14:25:51;3.50;;;1.60;;
12762;SDS011;6445;52.490;13.378;2024-01-15T14:28:17;5.20;;;2.05;;
12762;SDS011;6445;52.490;13.378;2024-01-15T14:30:43;4.57;;;2.17;;
12762;SDS011;6445;52.490;13.378;2024-01-15T14:33:08;4.68;;;2.03;;
12762;SDS011;6445;52.490;13.378;2024-01-15T14:35:33;4.25;;;2.03;;
12762;SDS011;6445;52.490;13.378;2024-01-15T14:37:58;4.10;;;1.77;;
12762;SDS011;6445;52.490;13.378;2024-01-15T14:40:25;2.72;;;1.67;;
12762;SDS011;6445;52.490;13.378;2024-01-15T14:42:50;4.78;;;1.92;;
12762;SDS011;6445;52.490;13.378;2024-01-15T14:45:16;3.88;;;1.83;;